createdAt,value
2019-03-10T00:00:38.858Z,89.15
2019-03-10T00:04:40.767Z,88.85
2019-03-10T00:08:42.706Z,88.91
2019-03-10T00:12:44.620Z,88.95
2019-03-10T00:16:46.523Z,89.12
2019-03-10T00:20:48.423Z,89.30
2019-03-10T00:24:50.326Z,89.46
2019-03-10T00:28:52.255Z,89.36
2019-03-10T00:32:54.233Z,89.51
2019-03-10T00:36:56.144Z,89.96
2019-03-10T00:41:11.165Z,90.19
2019-03-10T00:45:34.085Z,90.20
2019-03-10T00:50:29.115Z,90.35
2019-03-10T00:54:31.029Z,90.44
2019-03-10T00:58:32.938Z,89.93
2019-03-10T01:02:34.848Z,90.01
2019-03-10T01:06:36.755Z,90.40
2019-03-10T01:10:38.663Z,90.21
2019-03-10T01:14:40.561Z,89.68
2019-03-10T01:18:43.882Z,89.91
2019-03-10T01:22:45.800Z,90.32
2019-03-10T01:26:47.694Z,90.38
2019-03-10T01:31:06.108Z,90.68
2019-03-10T01:35:21.574Z,91.27
2019-03-10T01:39:23.621Z,92.15
2019-03-10T01:43:25.529Z,92.01
2019-03-10T01:47:27.451Z,92.22
2019-03-10T01:51:29.555Z,92.23
2019-03-10T01:55:31.467Z,91.77
2019-03-10T01:59:33.384Z,91.76
2019-03-10T02:03:35.287Z,91.58
2019-03-10T02:07:37.202Z,91.81
2019-03-10T02:11:39.090Z,91.72
2019-03-10T02:15:40.998Z,91.12
2019-03-10T02:19:43.309Z,91.22
2019-03-10T02:23:45.196Z,91.23
2019-03-10T02:27:47.106Z,91.24
2019-03-10T02:31:49.017Z,91.28
2019-03-10T02:35:50.914Z,91.65
2019-03-10T02:39:52.823Z,91.83
2019-03-10T02:43:55.035Z,91.61
2019-03-10T02:47:56.932Z,91.66
2019-03-10T02:51:58.838Z,91.48
2019-03-10T02:56:00.724Z,91.52
2019-03-10T03:00:02.690Z,91.67
2019-03-10T03:04:05.838Z,90.87
2019-03-10T03:08:07.834Z,90.18
2019-03-10T03:12:09.738Z,89.40
2019-03-10T03:16:12.612Z,89.04
2019-03-10T03:20:14.683Z,88.91
2019-03-10T03:24:16.621Z,88.57
2019-03-10T03:28:18.488Z,88.84
2019-03-10T03:32:20.524Z,89.00
2019-03-10T03:36:27.311Z,89.09
2019-03-10T03:40:29.568Z,88.49
2019-03-10T03:44:31.490Z,88.04
2019-03-10T03:48:33.398Z,88.10
2019-03-10T03:52:35.286Z,87.89
2019-03-10T03:56:37.420Z,88.12
2019-03-10T04:00:39.376Z,88.31
2019-03-10T04:04:41.289Z,88.34
2019-03-10T04:08:43.215Z,88.89
2019-03-10T04:12:45.145Z,88.77
2019-03-10T04:16:47.092Z,88.73
2019-03-10T04:20:49.006Z,88.27
2019-03-10T04:24:50.906Z,89.00
2019-03-10T04:28:52.894Z,88.93
2019-03-10T04:32:54.814Z,88.75
2019-03-10T04:36:56.728Z,88.81
2019-03-10T04:40:58.735Z,88.89
2019-03-10T04:45:00.683Z,89.29
2019-03-10T04:49:02.735Z,89.23
2019-03-10T04:53:04.856Z,88.93
2019-03-10T04:57:09.367Z,88.87
2019-03-10T05:01:11.341Z,88.60
2019-03-10T05:05:14.538Z,88.70
2019-03-10T05:09:16.687Z,88.73
2019-03-10T05:13:18.608Z,88.73
2019-03-10T05:17:20.540Z,89.20
2019-03-10T05:21:22.433Z,89.63
2019-03-10T05:25:25.351Z,89.87
2019-03-10T05:29:27.257Z,90.08
2019-03-10T05:33:29.698Z,90.09
2019-03-10T05:37:49.986Z,90.49
2019-03-10T05:41:53.856Z,90.53
2019-03-10T05:45:55.954Z,91.17
2019-03-10T05:49:57.859Z,91.42
2019-03-10T05:54:00.936Z,91.53
2019-03-10T05:58:02.865Z,91.52
2019-03-10T06:02:04.766Z,91.45
2019-03-10T06:06:06.674Z,91.44
2019-03-10T06:10:08.639Z,91.39
2019-03-10T06:14:10.518Z,91.57
2019-03-10T06:18:13.884Z,91.74
2019-03-10T06:22:16.084Z,91.85
2019-03-10T06:26:17.945Z,92.14
2019-03-10T06:30:19.910Z,92.21
2019-03-10T06:34:23.614Z,92.25
2019-03-10T06:38:25.504Z,92.29
2019-03-10T06:42:27.412Z,92.05
2019-03-10T06:46:29.587Z,92.04
2019-03-10T06:50:31.490Z,92.31
2019-03-10T06:54:33.376Z,92.21
2019-03-10T06:58:35.284Z,91.97
2019-03-10T07:02:37.190Z,91.51
2019-03-10T07:06:39.084Z,91.15
2019-03-10T07:10:40.999Z,91.26
2019-03-10T07:14:42.885Z,91.43
2019-03-10T07:18:45.760Z,91.44
2019-03-10T07:22:47.672Z,91.44
2019-03-10T07:26:49.572Z,91.29
2019-03-10T07:30:53.092Z,91.42
2019-03-10T07:35:05.409Z,91.71
2019-03-10T07:39:09.830Z,91.92
2019-03-10T07:43:13.366Z,92.08
2019-03-10T07:47:23.040Z,92.21
2019-03-10T07:51:26.600Z,92.21
2019-03-10T07:55:40.066Z,92.20
2019-03-10T07:59:50.965Z,92.06
2019-03-10T08:03:54.500Z,92.30
2019-03-10T08:08:14.279Z,92.05
2019-03-10T08:12:23.729Z,91.94
2019-03-10T08:16:30.297Z,91.97
2019-03-10T08:20:45.743Z,91.71
2019-03-10T08:25:01.739Z,91.24
2019-03-10T08:29:23.438Z,90.93
2019-03-10T08:33:32.799Z,90.19
2019-03-10T08:37:39.321Z,89.94
2019-03-10T08:41:42.872Z,90.12
2019-03-10T08:45:49.323Z,90.22
2019-03-10T08:49:52.935Z,90.37
2019-03-10T08:53:56.480Z,90.97
2019-03-10T08:58:02.884Z,90.68
2019-03-10T09:02:09.288Z,90.94
2019-03-10T09:06:28.993Z,90.88
2019-03-10T09:10:41.409Z,90.69
2019-03-10T09:14:45.101Z,90.48
2019-03-10T09:19:03.744Z,90.96
2019-03-10T09:23:13.507Z,91.00
2019-03-10T09:27:28.287Z,91.34
2019-03-10T09:31:46.671Z,91.57
2019-03-10T09:36:04.945Z,91.59
2019-03-10T09:40:12.682Z,91.82
2019-03-10T09:44:14.357Z,91.95
2019-03-10T09:48:24.797Z,92.28
2019-03-10T09:52:26.453Z,92.18
2019-03-10T09:56:43.235Z,92.01
2019-03-10T10:01:02.479Z,92.21
2019-03-10T10:05:10.523Z,91.87
2019-03-10T10:09:25.932Z,91.88
2019-03-10T10:13:38.435Z,92.35
2019-03-10T10:17:42.679Z,92.53
2019-03-10T10:21:44.346Z,92.74
2019-03-10T10:25:47.889Z,92.39
2019-03-10T10:30:09.733Z,92.29
2019-03-10T10:34:31.256Z,92.38
2019-03-10T10:38:50.875Z,92.36
2019-03-10T10:43:07.771Z,92.39
2019-03-10T10:47:14.930Z,92.39
2019-03-10T10:51:19.302Z,92.14
2019-03-10T10:55:25.717Z,92.09
2019-03-10T10:59:29.250Z,92.24
2019-03-10T11:03:44.861Z,92.52
2019-03-10T11:07:50.824Z,92.34
2019-03-10T11:12:06.580Z,92.36
2019-03-10T11:16:10.123Z,92.64
2019-03-10T11:20:13.918Z,92.32
2019-03-10T11:24:17.489Z,92.30
2019-03-10T11:28:39.360Z,92.17
2019-03-10T11:32:42.917Z,92.37
2019-03-10T11:36:52.090Z,91.72
2019-03-10T11:40:56.685Z,91.37
2019-03-10T11:45:00.440Z,90.03
2019-03-10T11:49:07.083Z,90.18
2019-03-10T11:53:18.741Z,90.48
2019-03-10T11:57:31.917Z,89.81
2019-03-10T12:01:41.281Z,88.73
2019-03-10T12:06:02.628Z,87.60
2019-03-10T12:10:07.361Z,87.71
2019-03-10T12:14:09.480Z,87.53
2019-03-10T12:18:11.379Z,87.25
2019-03-10T12:22:13.318Z,86.79
2019-03-10T12:26:15.304Z,86.55
2019-03-10T12:30:17.880Z,84.23
2019-03-10T12:34:19.844Z,84.17
2019-03-10T12:38:21.816Z,84.13
2019-03-10T12:42:23.715Z,83.54
2019-03-10T12:46:25.808Z,82.64
2019-03-10T12:50:27.725Z,83.18
2019-03-10T12:54:29.939Z,82.63
2019-03-10T12:58:31.962Z,83.48
2019-03-10T13:02:34.092Z,83.97
2019-03-10T13:06:36.114Z,84.87
2019-03-10T13:10:38.039Z,85.20
2019-03-10T13:14:39.942Z,86.95
2019-03-10T13:18:41.860Z,86.34
2019-03-10T13:22:43.921Z,87.13
2019-03-10T13:26:45.833Z,86.64
2019-03-10T13:30:47.786Z,86.66
2019-03-10T13:34:49.695Z,86.06
2019-03-10T13:38:51.619Z,84.19
2019-03-10T13:42:53.655Z,81.72
2019-03-10T13:46:55.606Z,80.27
2019-03-10T13:50:57.548Z,81.22
2019-03-10T13:54:59.449Z,81.45
2019-03-10T13:59:01.659Z,81.91
2019-03-10T14:03:03.575Z,78.51
2019-03-10T14:07:05.668Z,79.19
2019-03-10T14:11:07.580Z,76.42
2019-03-10T14:15:15.909Z,75.42
2019-03-10T14:19:17.862Z,77.39
2019-03-10T14:23:19.737Z,79.03
2019-03-10T14:27:21.657Z,80.07
2019-03-10T14:31:23.576Z,78.73
2019-03-10T14:35:25.482Z,77.66
2019-03-10T14:39:35.859Z,75.52
2019-03-10T14:43:37.757Z,76.32
2019-03-10T14:47:39.681Z,76.37
2019-03-10T14:51:41.577Z,77.22
2019-03-10T14:55:43.487Z,75.23
2019-03-10T14:59:45.405Z,74.45
2019-03-10T15:03:47.323Z,75.58
2019-03-10T15:07:49.248Z,74.50
2019-03-10T15:11:51.161Z,72.84
2019-03-10T15:15:53.061Z,72.38
2019-03-10T15:19:54.976Z,69.49
2019-03-10T15:23:56.894Z,68.35
2019-03-10T15:27:58.827Z,67.75
2019-03-10T15:32:00.737Z,67.86
2019-03-10T15:36:02.649Z,67.62
2019-03-10T15:40:07.830Z,64.64
2019-03-10T15:44:09.733Z,65.32
2019-03-10T15:48:11.655Z,65.13
2019-03-10T15:52:13.576Z,62.81
2019-03-10T15:56:15.464Z,64.53
2019-03-10T16:00:20.706Z,62.29
2019-03-10T16:04:22.896Z,62.00
2019-03-10T16:08:24.803Z,60.30
2019-03-10T16:12:26.730Z,59.56
2019-03-10T16:16:28.637Z,59.42
2019-03-10T16:20:30.553Z,60.40
2019-03-10T16:24:32.472Z,60.30
2019-03-10T16:28:34.395Z,61.19
2019-03-10T16:32:36.310Z,59.34
2019-03-10T16:36:38.216Z,60.02
2019-03-10T16:40:40.137Z,58.57
2019-03-10T16:44:42.054Z,56.98
2019-03-10T16:48:44.032Z,58.36
2019-03-10T16:52:45.976Z,57.71
2019-03-10T16:56:47.881Z,58.41
2019-03-10T17:00:49.865Z,56.10
2019-03-10T17:04:51.772Z,54.81
2019-03-10T17:08:53.695Z,52.59
2019-03-10T17:12:55.976Z,50.15
2019-03-10T17:16:57.893Z,49.96
2019-03-10T17:20:59.792Z,49.70
2019-03-10T17:25:01.721Z,49.67
2019-03-10T17:29:03.637Z,48.24
2019-03-10T17:33:05.645Z,47.96
2019-03-10T17:37:07.567Z,47.90
2019-03-10T17:41:09.481Z,47.62
2019-03-10T17:45:22.981Z,46.43
2019-03-10T17:49:24.972Z,45.85
2019-03-10T17:53:26.902Z,46.68
2019-03-10T17:57:30.045Z,46.14
2019-03-10T18:01:31.964Z,46.39
2019-03-10T18:05:33.881Z,46.42
2019-03-10T18:09:35.801Z,48.01
2019-03-10T18:13:37.697Z,47.21
2019-03-10T18:17:39.601Z,47.82
2019-03-10T18:21:41.511Z,48.39
2019-03-10T18:25:43.491Z,50.23
2019-03-10T18:29:45.395Z,47.00
2019-03-10T18:33:47.292Z,45.28
2019-03-10T18:37:50.179Z,45.45
2019-03-10T18:41:52.102Z,43.88
2019-03-10T18:45:54.006Z,43.87
2019-03-10T18:49:55.963Z,44.86
2019-03-10T18:53:57.965Z,44.97
2019-03-10T18:57:59.872Z,46.59
2019-03-10T19:02:01.786Z,46.67
2019-03-10T19:06:04.953Z,47.61
2019-03-10T19:10:13.030Z,47.17
2019-03-10T19:14:14.962Z,48.39
2019-03-10T19:18:16.856Z,48.65
2019-03-10T19:22:18.764Z,50.15
2019-03-10T19:26:21.131Z,51.18
2019-03-10T19:30:24.662Z,49.49
2019-03-10T19:34:26.581Z,50.48
2019-03-10T19:38:30.187Z,51.36
2019-03-10T19:42:32.159Z,53.94
2019-03-10T19:46:34.046Z,56.64
2019-03-10T19:50:35.955Z,58.03
2019-03-10T19:54:37.888Z,58.19
2019-03-10T19:58:42.816Z,58.43
2019-03-10T20:02:45.040Z,58.88
2019-03-10T20:06:47.935Z,59.19
2019-03-10T20:10:49.813Z,58.47
2019-03-10T20:14:51.715Z,58.75
2019-03-10T20:18:53.614Z,57.11
2019-03-10T20:22:55.637Z,56.77
2019-03-10T20:26:57.538Z,56.88
2019-03-10T20:30:59.446Z,56.85
2019-03-10T20:35:01.331Z,60.39
2019-03-10T20:39:05.059Z,69.96
2019-03-10T20:43:08.566Z,74.21
2019-03-10T20:47:10.465Z,76.92
2019-03-10T20:51:12.363Z,78.16
2019-03-10T20:55:15.403Z,80.24
2019-03-10T20:59:17.296Z,80.35
2019-03-10T21:03:19.202Z,80.46
2019-03-10T21:07:21.134Z,80.03
2019-03-10T21:11:23.041Z,79.99
2019-03-10T21:15:26.594Z,80.27
2019-03-10T21:19:28.718Z,80.79
2019-03-10T21:23:30.630Z,79.72
2019-03-10T21:27:32.537Z,80.77
2019-03-10T21:31:35.437Z,80.33
2019-03-10T21:35:37.353Z,80.20
2019-03-10T21:39:39.234Z,80.31
2019-03-10T21:43:41.145Z,80.33
2019-03-10T21:47:43.033Z,79.42
2019-03-10T21:51:44.937Z,79.14
2019-03-10T21:55:46.846Z,78.63
2019-03-10T21:59:48.732Z,77.99
2019-03-10T22:03:50.636Z,77.63
2019-03-10T22:07:52.541Z,76.89
2019-03-10T22:11:55.407Z,76.55
2019-03-10T22:15:57.313Z,76.51
2019-03-10T22:19:59.197Z,75.42
2019-03-10T22:24:03.181Z,75.37
2019-03-10T22:28:05.290Z,74.64
2019-03-10T22:32:07.190Z,74.59
2019-03-10T22:36:09.097Z,74.31
2019-03-10T22:40:14.356Z,74.20
2019-03-10T22:44:16.256Z,74.37
2019-03-10T22:48:18.159Z,73.69
2019-03-10T22:52:20.063Z,73.77
2019-03-10T22:56:21.971Z,74.13
2019-03-10T23:00:27.704Z,73.90
2019-03-10T23:04:32.848Z,74.50
2019-03-10T23:08:34.749Z,74.26
2019-03-10T23:12:36.650Z,74.28
2019-03-10T23:16:38.550Z,73.97
2019-03-10T23:20:41.525Z,73.16
2019-03-10T23:24:43.422Z,71.61
2019-03-10T23:28:45.327Z,70.92
2019-03-10T23:32:47.229Z,71.56
2019-03-10T23:36:49.133Z,70.29
2019-03-10T23:40:51.025Z,70.27
2019-03-10T23:44:54.514Z,69.16
2019-03-10T23:48:56.413Z,70.09
2019-03-10T23:52:58.316Z,68.75
2019-03-10T23:57:00.217Z,69.49
